Alpine, Kentucky
Current Conditions -  °F | °C
As of 11:55 AM on Sunday 23 Nov 2014 (Local Time) from KSME Reporting Station
Overcast Overcast  
Wind Chill: 11°   Ceiling: 7000
Heat Index: 11°   Visibility: 10mi
Dew Point:   Wind: 6mph
Humidity: 67%   Direction: 110°ESE
Pressure: 29.87"   Gusts: NA
Location:  36.938°N, 84.5342°W
Report Text: KSME 231655Z AUTO 11005KT 10SM BKN070 OVC090 11/05 A2987 RMK AO2
Loading
Personal Weather Stations






























Interactive Weather Map New forecast layout! Learn more

10-Day Weather Forecast

Advertisements
Track Severe Weather on mobile